DLH4JE LIMC-EDDF
Flight info
| Callsign | DLH4JE |
|---|---|
| Flight time | 0h 53m |
| Altitude | 32000 |
| Route | PEPAG2Q PEPAG DCT ABESI N851 UTAVO DCT ROLSA DCT LADOL T163 EMPAX EMPAX5B |
| Aircraft | A321/M-SDE3FGHIRWY/LB1 |
Departure
| Time | 2026-05-04 21:12 |
|---|---|
| Airport | Milan Malpensa International Airport (LIMC) |
Arrival
| Time | 2026-05-04 22:06 |
|---|---|
| Airport | Frankfurt Main Airport (EDDF) |
| Time | Latitude | Longitude | Altitude | Speed | Heading |
|---|---|---|---|---|---|
| 2026-05-04 20:37 | 45.62506 | 8.71756 | 753 ft | 0 kts | 259° |
| 2026-05-04 21:02 | 45.62506 | 8.71757 | 753 ft | 1 kts | 259° |
| 2026-05-04 21:02 | 45.62511 | 8.71791 | 753 ft | 4 kts | 259° |
| 2026-05-04 21:02 | 45.62516 | 8.71824 | 750 ft | 3 kts | 258° |
| 2026-05-04 21:03 | 45.62525 | 8.71853 | 753 ft | 4 kts | 205° |
| 2026-05-04 21:03 | 45.62550 | 8.71859 | 753 ft | 4 kts | 173° |
| 2026-05-04 21:03 | 45.62568 | 8.71855 | 749 ft | 0 kts | 171° |
| 2026-05-04 21:06 | 45.62564 | 8.71856 | 749 ft | 2 kts | 171° |
| 2026-05-04 21:06 | 45.62543 | 8.71861 | 753 ft | 6 kts | 171° |
| 2026-05-04 21:06 | 45.62486 | 8.71875 | 753 ft | 9 kts | 169° |
| 2026-05-04 21:07 | 45.62419 | 8.71894 | 750 ft | 11 kts | 169° |
| 2026-05-04 21:07 | 45.62349 | 8.71935 | 753 ft | 11 kts | 123° |
| 2026-05-04 21:07 | 45.62356 | 8.72052 | 749 ft | 13 kts | 79° |
| 2026-05-04 21:07 | 45.62303 | 8.72127 | 752 ft | 13 kts | 169° |
| 2026-05-04 21:08 | 45.62216 | 8.72164 | 751 ft | 13 kts | 131° |
| 2026-05-04 21:08 | 45.62219 | 8.72295 | 747 ft | 15 kts | 79° |
| 2026-05-04 21:08 | 45.62241 | 8.72459 | 745 ft | 19 kts | 79° |
| 2026-05-04 21:08 | 45.62266 | 8.72646 | 748 ft | 18 kts | 79° |
| 2026-05-04 21:09 | 45.62289 | 8.72817 | 751 ft | 18 kts | 79° |
| 2026-05-04 21:09 | 45.62303 | 8.72991 | 749 ft | 17 kts | 113° |
| 2026-05-04 21:09 | 45.62194 | 8.73050 | 753 ft | 18 kts | 169° |
| 2026-05-04 21:09 | 45.62069 | 8.73083 | 751 ft | 19 kts | 169° |
| 2026-05-04 21:10 | 45.61941 | 8.73119 | 749 ft | 19 kts | 169° |
| 2026-05-04 21:10 | 45.61830 | 8.73149 | 753 ft | 14 kts | 169° |
| 2026-05-04 21:10 | 45.61741 | 8.73208 | 749 ft | 15 kts | 129° |
| 2026-05-04 21:10 | 45.61679 | 8.73335 | 751 ft | 16 kts | 124° |
| 2026-05-04 21:11 | 45.61614 | 8.73474 | 749 ft | 18 kts | 123° |
| 2026-05-04 21:11 | 45.61590 | 8.73650 | 743 ft | 21 kts | 80° |
| 2026-05-04 21:11 | 45.61702 | 8.73713 | 745 ft | 21 kts | 347° |
| 2026-05-04 21:11 | 45.61995 | 8.73632 | 742 ft | 78 kts | 349° |
| 2026-05-04 21:12 | 45.62773 | 8.73417 | 746 ft | 146 kts | 349° |
| 2026-05-04 21:12 | 45.63922 | 8.73105 | 925 ft | 181 kts | 349° |
| 2026-05-04 21:12 | 45.65179 | 8.73139 | 1645 ft | 185 kts | 18° |
| 2026-05-04 21:12 | 45.66209 | 8.74211 | 2353 ft | 187 kts | 54° |
| 2026-05-04 21:13 | 45.66796 | 8.75928 | 2795 ft | 201 kts | 66° |
| 2026-05-04 21:13 | 45.67636 | 8.77573 | 3266 ft | 211 kts | 40° |
| 2026-05-04 21:13 | 45.68783 | 8.78899 | 3892 ft | 212 kts | 39° |
| 2026-05-04 21:13 | 45.69940 | 8.80234 | 4520 ft | 214 kts | 39° |
| 2026-05-04 21:14 | 45.71102 | 8.81588 | 5118 ft | 217 kts | 40° |
| 2026-05-04 21:14 | 45.72239 | 8.83045 | 5556 ft | 227 kts | 52° |
| 2026-05-04 21:14 | 45.72740 | 8.85217 | 5842 ft | 240 kts | 95° |
| 2026-05-04 21:14 | 45.72172 | 8.87440 | 6508 ft | 242 kts | 127° |
| 2026-05-04 21:15 | 45.71148 | 8.89358 | 7267 ft | 243 kts | 128° |
| 2026-05-04 21:15 | 45.70131 | 8.91301 | 8021 ft | 245 kts | 128° |
| 2026-05-04 21:15 | 45.69129 | 8.93247 | 8736 ft | 248 kts | 127° |
| 2026-05-04 21:15 | 45.68110 | 8.95250 | 9461 ft | 250 kts | 127° |
| 2026-05-04 21:16 | 45.67086 | 8.97271 | 10174 ft | 252 kts | 128° |
| 2026-05-04 21:16 | 45.66055 | 8.99302 | 10890 ft | 253 kts | 128° |
| 2026-05-04 21:16 | 45.65124 | 9.01439 | 11570 ft | 257 kts | 116° |
| 2026-05-04 21:16 | 45.64655 | 9.03928 | 12222 ft | 264 kts | 96° |
| 2026-05-04 21:17 | 45.64737 | 9.05686 | 12629 ft | 272 kts | 79° |
| 2026-05-04 21:17 | 45.65564 | 9.08146 | 13229 ft | 281 kts | 52° |
| 2026-05-04 21:17 | 45.67072 | 9.09948 | 13808 ft | 287 kts | 26° |
| 2026-05-04 21:17 | 45.68998 | 9.10695 | 14384 ft | 290 kts | 359° |
| 2026-05-04 21:18 | 45.71021 | 9.10504 | 14868 ft | 297 kts | 353° |
| 2026-05-04 21:18 | 45.73157 | 9.10224 | 15011 ft | 318 kts | 353° |
| 2026-05-04 21:18 | 45.75374 | 9.09935 | 15414 ft | 328 kts | 353° |
| 2026-05-04 21:18 | 45.77660 | 9.09649 | 15975 ft | 331 kts | 353° |
| 2026-05-04 21:19 | 45.79970 | 9.09368 | 16568 ft | 334 kts | 353° |
| 2026-05-04 21:19 | 45.82296 | 9.09091 | 17163 ft | 337 kts | 353° |
| 2026-05-04 21:19 | 45.84639 | 9.08814 | 17739 ft | 339 kts | 353° |
| 2026-05-04 21:19 | 45.87001 | 9.08530 | 18279 ft | 341 kts | 353° |
| 2026-05-04 21:20 | 45.89375 | 9.08237 | 18826 ft | 344 kts | 353° |
| 2026-05-04 21:20 | 45.91766 | 9.07943 | 19354 ft | 346 kts | 353° |
| 2026-05-04 21:20 | 45.94178 | 9.07646 | 19851 ft | 349 kts | 352° |
| 2026-05-04 21:20 | 45.96615 | 9.07346 | 20324 ft | 352 kts | 353° |
| 2026-05-04 21:21 | 45.99039 | 9.07045 | 20819 ft | 355 kts | 352° |
| 2026-05-04 21:21 | 46.01506 | 9.06688 | 21304 ft | 356 kts | 351° |
| 2026-05-04 21:21 | 46.03987 | 9.06286 | 21777 ft | 359 kts | 351° |
| 2026-05-04 21:21 | 46.06478 | 9.05863 | 22253 ft | 361 kts | 351° |
| 2026-05-04 21:22 | 46.08955 | 9.05440 | 22689 ft | 364 kts | 351° |
| 2026-05-04 21:22 | 46.11493 | 9.05013 | 23126 ft | 367 kts | 351° |
| 2026-05-04 21:22 | 46.14038 | 9.04588 | 23568 ft | 369 kts | 351° |
| 2026-05-04 21:22 | 46.16601 | 9.04165 | 23975 ft | 371 kts | 351° |
| 2026-05-04 21:23 | 46.19182 | 9.03782 | 24373 ft | 374 kts | 352° |
| 2026-05-04 21:23 | 46.21785 | 9.03435 | 24782 ft | 377 kts | 352° |
| 2026-05-04 21:23 | 46.24410 | 9.03103 | 25164 ft | 379 kts | 353° |
| 2026-05-04 21:23 | 46.27045 | 9.02770 | 25558 ft | 381 kts | 353° |
| 2026-05-04 21:24 | 46.29696 | 9.02431 | 25959 ft | 384 kts | 352° |
| 2026-05-04 21:24 | 46.32337 | 9.02084 | 26331 ft | 386 kts | 352° |
| 2026-05-04 21:24 | 46.35020 | 9.01726 | 26702 ft | 388 kts | 352° |
| 2026-05-04 21:24 | 46.37720 | 9.01363 | 27064 ft | 390 kts | 352° |
| 2026-05-04 21:25 | 46.40437 | 9.00997 | 27420 ft | 392 kts | 352° |
| 2026-05-04 21:25 | 46.43164 | 9.00626 | 27748 ft | 394 kts | 352° |
| 2026-05-04 21:25 | 46.45879 | 9.00257 | 28057 ft | 397 kts | 352° |
| 2026-05-04 21:25 | 46.48635 | 8.99885 | 28349 ft | 399 kts | 352° |
| 2026-05-04 21:26 | 46.51409 | 8.99514 | 28664 ft | 401 kts | 352° |
| 2026-05-04 21:26 | 46.54201 | 8.99141 | 28989 ft | 403 kts | 353° |
| 2026-05-04 21:26 | 46.57006 | 8.98765 | 29283 ft | 405 kts | 353° |
| 2026-05-04 21:26 | 46.59783 | 8.98389 | 29565 ft | 407 kts | 353° |
| 2026-05-04 21:27 | 46.62610 | 8.98003 | 29860 ft | 409 kts | 352° |
| 2026-05-04 21:27 | 46.65455 | 8.97615 | 30147 ft | 410 kts | 353° |
| 2026-05-04 21:27 | 46.68308 | 8.97229 | 30436 ft | 412 kts | 353° |
| 2026-05-04 21:27 | 46.71171 | 8.96840 | 30746 ft | 414 kts | 353° |
| 2026-05-04 21:28 | 46.74045 | 8.96453 | 31027 ft | 415 kts | 353° |
| 2026-05-04 21:28 | 46.76936 | 8.96066 | 31317 ft | 417 kts | 353° |
| 2026-05-04 21:28 | 46.79800 | 8.95681 | 31600 ft | 419 kts | 352° |
| 2026-05-04 21:28 | 46.82709 | 8.95285 | 31892 ft | 419 kts | 352° |
| 2026-05-04 21:29 | 46.85632 | 8.94882 | 32021 ft | 425 kts | 352° |
| 2026-05-04 21:29 | 46.88601 | 8.94470 | 32038 ft | 433 kts | 352° |
| 2026-05-04 21:29 | 46.94723 | 8.93628 | 32036 ft | 450 kts | 352° |
| 2026-05-04 21:30 | 47.01033 | 8.92766 | 32026 ft | 463 kts | 352° |
| 2026-05-04 21:30 | 47.07483 | 8.91874 | 32026 ft | 466 kts | 352° |
| 2026-05-04 21:31 | 47.17176 | 8.90546 | 32026 ft | 466 kts | 352° |
| 2026-05-04 21:32 | 47.23638 | 8.89647 | 32027 ft | 466 kts | 352° |
| 2026-05-04 21:32 | 47.30070 | 8.88985 | 32025 ft | 468 kts | 0° |
| 2026-05-04 21:33 | 47.36592 | 8.89468 | 32026 ft | 469 kts | 1° |
| 2026-05-04 21:33 | 47.43120 | 8.89943 | 32025 ft | 469 kts | 1° |
| 2026-05-04 21:34 | 47.49646 | 8.90405 | 32025 ft | 469 kts | 1° |
| 2026-05-04 21:34 | 47.56189 | 8.90880 | 32016 ft | 469 kts | 1° |
| 2026-05-04 21:35 | 47.62675 | 8.91357 | 32014 ft | 470 kts | 1° |
| 2026-05-04 21:35 | 47.69212 | 8.91844 | 32010 ft | 470 kts | 1° |
| 2026-05-04 21:36 | 47.75748 | 8.92336 | 32015 ft | 470 kts | 1° |
| 2026-05-04 21:36 | 47.82264 | 8.92812 | 32007 ft | 470 kts | 1° |
| 2026-05-04 21:37 | 47.88813 | 8.93278 | 32009 ft | 470 kts | 1° |
| 2026-05-04 21:37 | 47.95314 | 8.93743 | 32012 ft | 470 kts | 1° |
| 2026-05-04 21:38 | 48.01864 | 8.94221 | 32013 ft | 470 kts | 1° |
| 2026-05-04 21:38 | 48.08413 | 8.94711 | 32005 ft | 471 kts | 1° |
| 2026-05-04 21:39 | 48.14967 | 8.95197 | 32001 ft | 472 kts | 1° |
| 2026-05-04 21:39 | 48.21521 | 8.95875 | 32001 ft | 472 kts | 4° |
| 2026-05-04 21:40 | 48.28029 | 8.96936 | 32000 ft | 473 kts | 5° |
| 2026-05-04 21:40 | 48.34574 | 8.98056 | 31995 ft | 473 kts | 5° |
| 2026-05-04 21:41 | 48.41133 | 8.99077 | 31992 ft | 473 kts | 4° |
| 2026-05-04 21:41 | 48.47693 | 9.00041 | 31991 ft | 474 kts | 4° |
| 2026-05-04 21:42 | 48.54267 | 9.01011 | 31987 ft | 474 kts | 4° |
| 2026-05-04 21:42 | 48.60839 | 9.02019 | 31954 ft | 474 kts | 4° |
| 2026-05-04 21:42 | 48.64112 | 9.02558 | 31373 ft | 472 kts | 5° |
| 2026-05-04 21:43 | 48.67379 | 9.03228 | 30558 ft | 474 kts | 7° |
| 2026-05-04 21:43 | 48.70650 | 9.04011 | 29713 ft | 476 kts | 8° |
| 2026-05-04 21:43 | 48.73923 | 9.04856 | 28834 ft | 478 kts | 9° |
| 2026-05-04 21:43 | 48.77174 | 9.05708 | 27958 ft | 479 kts | 8° |
| 2026-05-04 21:44 | 48.80467 | 9.06558 | 27004 ft | 481 kts | 8° |
| 2026-05-04 21:44 | 48.83781 | 9.07391 | 26021 ft | 482 kts | 8° |
| 2026-05-04 21:44 | 48.87105 | 9.08199 | 25186 ft | 480 kts | 7° |
| 2026-05-04 21:44 | 48.90396 | 9.08919 | 24487 ft | 473 kts | 5° |
| 2026-05-04 21:45 | 48.93611 | 9.09459 | 23794 ft | 468 kts | 4° |
| 2026-05-04 21:45 | 48.96848 | 9.09885 | 23087 ft | 462 kts | 2° |
| 2026-05-04 21:45 | 49.00041 | 9.10254 | 22353 ft | 457 kts | 2° |
| 2026-05-04 21:45 | 49.03167 | 9.10613 | 21621 ft | 453 kts | 2° |
| 2026-05-04 21:46 | 49.06302 | 9.10989 | 20890 ft | 448 kts | 3° |
| 2026-05-04 21:46 | 49.09395 | 9.11398 | 20149 ft | 443 kts | 4° |
| 2026-05-04 21:46 | 49.12454 | 9.11834 | 19411 ft | 439 kts | 4° |
| 2026-05-04 21:46 | 49.15489 | 9.12282 | 18685 ft | 434 kts | 4° |
| 2026-05-04 21:47 | 49.18446 | 9.12722 | 17979 ft | 430 kts | 4° |
| 2026-05-04 21:47 | 49.21412 | 9.13158 | 17263 ft | 426 kts | 4° |
| 2026-05-04 21:47 | 49.24352 | 9.13585 | 16708 ft | 419 kts | 4° |
| 2026-05-04 21:47 | 49.27229 | 9.14005 | 16191 ft | 411 kts | 4° |
| 2026-05-04 21:48 | 49.30029 | 9.14742 | 15645 ft | 406 kts | 12° |
| 2026-05-04 21:48 | 49.32809 | 9.15721 | 15072 ft | 412 kts | 11° |
| 2026-05-04 21:48 | 49.35608 | 9.16717 | 14488 ft | 410 kts | 12° |
| 2026-05-04 21:48 | 49.38356 | 9.17698 | 13936 ft | 408 kts | 12° |
| 2026-05-04 21:49 | 49.41112 | 9.18675 | 13373 ft | 405 kts | 12° |
| 2026-05-04 21:49 | 49.43856 | 9.19644 | 12811 ft | 402 kts | 12° |
| 2026-05-04 21:49 | 49.46575 | 9.20605 | 12252 ft | 398 kts | 12° |
| 2026-05-04 21:49 | 49.49251 | 9.21553 | 11880 ft | 386 kts | 12° |
| 2026-05-04 21:50 | 49.51799 | 9.22459 | 11753 ft | 366 kts | 12° |
| 2026-05-04 21:50 | 49.54198 | 9.23316 | 11624 ft | 349 kts | 12° |
| 2026-05-04 21:50 | 49.56514 | 9.24147 | 11503 ft | 334 kts | 12° |
| 2026-05-04 21:50 | 49.58734 | 9.24944 | 11339 ft | 321 kts | 12° |
| 2026-05-04 21:51 | 49.60882 | 9.25711 | 11020 ft | 315 kts | 12° |
| 2026-05-04 21:51 | 49.63016 | 9.26469 | 10643 ft | 312 kts | 12° |
| 2026-05-04 21:51 | 49.65124 | 9.27223 | 10272 ft | 309 kts | 12° |
| 2026-05-04 21:51 | 49.67195 | 9.27970 | 10062 ft | 300 kts | 12° |
| 2026-05-04 21:52 | 49.69238 | 9.28708 | 9990 ft | 302 kts | 12° |
| 2026-05-04 21:52 | 49.71263 | 9.29435 | 9873 ft | 302 kts | 12° |
| 2026-05-04 21:52 | 49.73316 | 9.30170 | 9677 ft | 301 kts | 12° |
| 2026-05-04 21:52 | 49.75353 | 9.30898 | 9489 ft | 300 kts | 12° |
| 2026-05-04 21:53 | 49.77387 | 9.31628 | 9305 ft | 299 kts | 12° |
| 2026-05-04 21:53 | 49.79387 | 9.32350 | 9121 ft | 298 kts | 12° |
| 2026-05-04 21:53 | 49.81404 | 9.33079 | 8932 ft | 296 kts | 12° |
| 2026-05-04 21:53 | 49.83411 | 9.33808 | 8755 ft | 295 kts | 12° |
| 2026-05-04 21:54 | 49.85440 | 9.34165 | 8559 ft | 292 kts | 357° |
| 2026-05-04 21:54 | 49.87440 | 9.33668 | 8372 ft | 289 kts | 341° |
| 2026-05-04 21:54 | 49.89254 | 9.32435 | 8192 ft | 287 kts | 331° |
| 2026-05-04 21:54 | 49.91033 | 9.31003 | 8013 ft | 286 kts | 331° |
| 2026-05-04 21:55 | 49.92805 | 9.29590 | 7828 ft | 285 kts | 332° |
| 2026-05-04 21:55 | 49.94568 | 9.28185 | 7658 ft | 284 kts | 332° |
| 2026-05-04 21:55 | 49.96326 | 9.26788 | 7472 ft | 283 kts | 332° |
| 2026-05-04 21:55 | 49.98077 | 9.25396 | 7296 ft | 282 kts | 332° |
| 2026-05-04 21:56 | 49.99801 | 9.24025 | 7100 ft | 280 kts | 332° |
| 2026-05-04 21:56 | 50.01544 | 9.22638 | 6942 ft | 280 kts | 332° |
| 2026-05-04 21:56 | 50.03275 | 9.21261 | 6765 ft | 279 kts | 331° |
| 2026-05-04 21:56 | 50.05001 | 9.19885 | 6593 ft | 278 kts | 332° |
| 2026-05-04 21:57 | 50.06722 | 9.18510 | 6414 ft | 277 kts | 332° |
| 2026-05-04 21:57 | 50.08409 | 9.17160 | 6245 ft | 276 kts | 332° |
| 2026-05-04 21:57 | 50.10189 | 9.16050 | 6060 ft | 275 kts | 339° |
| 2026-05-04 21:57 | 50.11992 | 9.15041 | 5871 ft | 274 kts | 339° |
| 2026-05-04 21:58 | 50.13755 | 9.13921 | 5672 ft | 272 kts | 327° |
| 2026-05-04 21:58 | 50.15069 | 9.11871 | 5490 ft | 268 kts | 298° |
| 2026-05-04 21:58 | 50.15595 | 9.09169 | 5305 ft | 266 kts | 272° |
| 2026-05-04 21:58 | 50.15278 | 9.06350 | 5118 ft | 266 kts | 250° |
| 2026-05-04 21:59 | 50.14626 | 9.03645 | 4926 ft | 266 kts | 249° |
| 2026-05-04 21:59 | 50.13977 | 9.00952 | 4736 ft | 262 kts | 250° |
| 2026-05-04 21:59 | 50.13365 | 8.98335 | 4623 ft | 250 kts | 250° |
| 2026-05-04 21:59 | 50.12785 | 8.95853 | 4555 ft | 237 kts | 250° |
| 2026-05-04 22:00 | 50.12224 | 8.93456 | 4442 ft | 234 kts | 251° |
| 2026-05-04 22:00 | 50.11685 | 8.91155 | 4310 ft | 222 kts | 251° |
| 2026-05-04 22:00 | 50.11168 | 8.88953 | 4166 ft | 210 kts | 251° |
| 2026-05-04 22:00 | 50.10686 | 8.86903 | 4065 ft | 193 kts | 251° |
| 2026-05-04 22:01 | 50.10234 | 8.84983 | 3843 ft | 184 kts | 251° |
| 2026-05-04 22:01 | 50.09801 | 8.83141 | 3616 ft | 178 kts | 251° |
| 2026-05-04 22:01 | 50.09382 | 8.81360 | 3388 ft | 173 kts | 251° |
| 2026-05-04 22:01 | 50.08978 | 8.79647 | 3165 ft | 168 kts | 252° |
| 2026-05-04 22:02 | 50.08579 | 8.77956 | 2937 ft | 164 kts | 252° |
| 2026-05-04 22:02 | 50.08187 | 8.76298 | 2729 ft | 162 kts | 252° |
| 2026-05-04 22:02 | 50.07804 | 8.74675 | 2512 ft | 157 kts | 252° |
| 2026-05-04 22:02 | 50.07431 | 8.73102 | 2321 ft | 153 kts | 251° |
| 2026-05-04 22:03 | 50.07066 | 8.71556 | 2112 ft | 151 kts | 251° |
| 2026-05-04 22:03 | 50.06703 | 8.70024 | 1909 ft | 151 kts | 251° |
| 2026-05-04 22:03 | 50.06342 | 8.68499 | 1711 ft | 150 kts | 251° |
| 2026-05-04 22:03 | 50.05982 | 8.66978 | 1514 ft | 150 kts | 251° |
| 2026-05-04 22:04 | 50.05622 | 8.65462 | 1315 ft | 149 kts | 251° |
| 2026-05-04 22:04 | 50.05263 | 8.63950 | 1111 ft | 149 kts | 251° |
| 2026-05-04 22:04 | 50.05029 | 8.62950 | 965 ft | 148 kts | 251° |
| 2026-05-04 22:04 | 50.04559 | 8.60957 | 746 ft | 148 kts | 251° |
| 2026-05-04 22:05 | 50.04199 | 8.59461 | 532 ft | 147 kts | 250° |
| 2026-05-04 22:05 | 50.03843 | 8.57980 | 372 ft | 140 kts | 250° |
| 2026-05-04 22:05 | 50.03546 | 8.56724 | 358 ft | 101 kts | 249° |
| 2026-05-04 22:05 | 50.03407 | 8.56144 | 353 ft | 68 kts | 250° |
| 2026-05-04 22:06 | 50.03313 | 8.55655 | 346 ft | 32 kts | 265° |
| 2026-05-04 22:06 | 50.03328 | 8.55369 | 343 ft | 22 kts | 279° |
| 2026-05-04 22:06 | 50.03348 | 8.55187 | 356 ft | 11 kts | 280° |
| 2026-05-04 22:06 | 50.03368 | 8.55065 | 346 ft | 12 kts | 291° |
| 2026-05-04 22:07 | 50.03404 | 8.54937 | 345 ft | 14 kts | 294° |
| 2026-05-04 22:07 | 50.03455 | 8.54843 | 343 ft | 9 kts | 336° |
| 2026-05-04 22:07 | 50.03471 | 8.54834 | 343 ft | 0 kts | 340° |
| 2026-05-04 22:07 | 50.03482 | 8.54828 | 344 ft | 7 kts | 340° |
| 2026-05-04 22:08 | 50.03553 | 8.54788 | 351 ft | 14 kts | 339° |
| 2026-05-04 22:08 | 50.03659 | 8.54727 | 344 ft | 17 kts | 340° |
| 2026-05-04 22:08 | 50.03762 | 8.54763 | 354 ft | 16 kts | 56° |
| 2026-05-04 22:08 | 50.03805 | 8.54930 | 350 ft | 17 kts | 69° |
| 2026-05-04 22:09 | 50.03846 | 8.55104 | 353 ft | 18 kts | 70° |
| 2026-05-04 22:09 | 50.03890 | 8.55288 | 357 ft | 19 kts | 70° |
| 2026-05-04 22:09 | 50.03936 | 8.55481 | 358 ft | 19 kts | 69° |
| 2026-05-04 22:09 | 50.03980 | 8.55664 | 354 ft | 18 kts | 70° |
| 2026-05-04 22:10 | 50.04023 | 8.55844 | 355 ft | 17 kts | 70° |
| 2026-05-04 22:10 | 50.04064 | 8.55961 | 355 ft | 9 kts | 27° |
| 2026-05-04 22:10 | 50.04115 | 8.55957 | 352 ft | 7 kts | 344° |
| 2026-05-04 22:10 | 50.04162 | 8.55931 | 352 ft | 8 kts | 340° |
| 2026-05-04 22:11 | 50.04218 | 8.55920 | 357 ft | 8 kts | 16° |
| 2026-05-04 22:11 | 50.04270 | 8.55960 | 361 ft | 8 kts | 9° |
| 2026-05-04 22:11 | 50.04323 | 8.55940 | 357 ft | 8 kts | 339° |
| 2026-05-04 22:11 | 50.04376 | 8.55918 | 362 ft | 8 kts | 2° |
| 2026-05-04 22:12 | 50.04419 | 8.55982 | 359 ft | 10 kts | 61° |
| 2026-05-04 22:12 | 50.04446 | 8.56088 | 362 ft | 11 kts | 69° |
| 2026-05-04 22:12 | 50.04475 | 8.56212 | 362 ft | 13 kts | 69° |
| 2026-05-04 22:12 | 50.04506 | 8.56339 | 363 ft | 10 kts | 70° |
| 2026-05-04 22:13 | 50.04526 | 8.56427 | 360 ft | 6 kts | 70° |
| 2026-05-04 22:13 | 50.04502 | 8.56465 | 356 ft | 6 kts | 157° |
| 2026-05-04 22:13 | 50.04477 | 8.56479 | 364 ft | 1 kts | 160° |
| 2026-05-04 22:13 | 50.04472 | 8.56481 | 356 ft | 0 kts | 161° |
| 2026-05-04 22:14 | 50.04469 | 8.56483 | 356 ft | 1 kts | 160° |
| 2026-05-04 22:14 | 50.04468 | 8.56484 | 356 ft | 0 kts | 160° |